createdAt,value
2022-07-27T00:01:07.374Z,999.90
2022-07-27T00:03:34.767Z,999.90
2022-07-27T00:06:01.958Z,999.90
2022-07-27T00:08:29.196Z,999.90
2022-07-27T00:10:57.205Z,999.90
2022-07-27T00:13:24.841Z,999.90
2022-07-27T00:15:52.075Z,999.90
2022-07-27T00:18:19.334Z,999.90
2022-07-27T00:20:46.563Z,999.90
2022-07-27T00:23:13.769Z,999.90
2022-07-27T00:25:41.080Z,999.90
2022-07-27T00:28:08.288Z,999.90
2022-07-27T00:30:35.479Z,999.90
2022-07-27T00:33:03.550Z,999.90
2022-07-27T00:35:30.829Z,999.90
2022-07-27T00:37:58.486Z,999.90
2022-07-27T00:40:26.978Z,999.90
2022-07-27T00:42:54.230Z,999.90
2022-07-27T00:45:21.583Z,999.90
2022-07-27T00:47:53.178Z,999.90
2022-07-27T00:50:22.227Z,999.90
2022-07-27T00:52:49.649Z,999.90
2022-07-27T00:55:16.896Z,999.90
2022-07-27T00:57:53.351Z,999.90
2022-07-27T01:00:27.970Z,999.90
2022-07-27T01:02:57.402Z,999.90
2022-07-27T01:05:36.047Z,999.90
2022-07-27T01:08:05.497Z,999.90
2022-07-27T01:10:32.750Z,999.90
2022-07-27T01:13:00.133Z,999.90
2022-07-27T01:15:27.445Z,999.90
2022-07-27T01:17:54.707Z,999.90
2022-07-27T01:20:22.138Z,999.90
2022-07-27T01:22:49.326Z,999.90
2022-07-27T01:25:16.601Z,999.90
2022-07-27T01:27:43.784Z,999.90
2022-07-27T01:30:26.809Z,999.90
2022-07-27T01:33:04.656Z,999.90
2022-07-27T01:35:32.587Z,999.90
2022-07-27T01:38:00.323Z,999.90
2022-07-27T01:40:28.049Z,999.90
2022-07-27T01:42:55.269Z,999.90
2022-07-27T01:45:22.555Z,999.90
2022-07-27T01:47:49.751Z,999.90
2022-07-27T01:50:17.070Z,999.90
2022-07-27T01:52:44.334Z,999.90
2022-07-27T01:55:12.046Z,999.90
2022-07-27T01:57:39.592Z,999.90
2022-07-27T02:00:11.127Z,999.90
2022-07-27T02:02:41.202Z,999.90
2022-07-27T02:05:11.871Z,999.90
2022-07-27T02:07:42.576Z,999.90
2022-07-27T02:10:10.721Z,999.90
2022-07-27T02:12:38.319Z,999.90
2022-07-27T02:15:15.322Z,999.90
2022-07-27T02:17:44.963Z,999.90
2022-07-27T02:20:14.820Z,999.90
2022-07-27T02:22:42.880Z,999.90
2022-07-27T02:25:11.767Z,999.90
2022-07-27T02:27:40.336Z,676.20
2022-07-27T02:30:08.735Z,999.90
2022-07-27T02:32:35.960Z,999.90
2022-07-27T02:35:18.659Z,999.90
2022-07-27T02:37:48.564Z,999.90
2022-07-27T02:40:17.274Z,724.27
2022-07-27T02:42:45.842Z,767.20
2022-07-27T02:45:14.682Z,234.47
2022-07-27T02:47:42.614Z,267.80
2022-07-27T02:50:10.200Z,328.47
2022-07-27T02:52:38.059Z,355.17
2022-07-27T02:55:05.880Z,406.97
2022-07-27T02:57:35.918Z,382.63
2022-07-27T03:00:06.743Z,199.50
2022-07-27T03:02:33.987Z,751.07
2022-07-27T03:05:01.190Z,261.07
2022-07-27T03:07:28.450Z,412.10
2022-07-27T03:09:55.607Z,453.43
2022-07-27T03:12:22.786Z,430.80
2022-07-27T03:14:49.985Z,532.57
2022-07-27T03:17:17.214Z,537.83
2022-07-27T03:19:44.411Z,450.20
2022-07-27T03:22:11.610Z,492.93
2022-07-27T03:24:38.837Z,429.97
2022-07-27T03:27:05.990Z,448.77
2022-07-27T03:29:35.362Z,436.90
2022-07-27T03:32:02.683Z,500.83
2022-07-27T03:34:29.879Z,476.03
2022-07-27T03:36:57.117Z,471.80
2022-07-27T03:39:24.292Z,487.03
2022-07-27T03:41:51.502Z,484.97
2022-07-27T03:44:18.672Z,565.67
2022-07-27T03:46:45.965Z,602.80
2022-07-27T03:49:14.664Z,664.50
2022-07-27T03:51:42.961Z,654.47
2022-07-27T03:54:10.409Z,644.43
2022-07-27T03:56:37.675Z,671.00
2022-07-27T03:59:05.345Z,696.77
2022-07-27T04:01:32.591Z,691.60
2022-07-27T04:03:59.805Z,718.23
2022-07-27T04:06:27.126Z,664.23
2022-07-27T04:08:59.734Z,668.57
2022-07-27T04:11:50.551Z,564.47
2022-07-27T04:14:21.087Z,675.77
2022-07-27T04:16:48.601Z,755.23
2022-07-27T04:19:16.180Z,865.27
2022-07-27T04:21:43.648Z,858.27
2022-07-27T04:24:10.857Z,890.07
2022-07-27T04:26:38.045Z,993.43
2022-07-27T04:29:05.731Z,999.90
2022-07-27T04:31:35.293Z,999.90
2022-07-27T04:34:02.574Z,861.60
2022-07-27T04:36:29.782Z,998.57
2022-07-27T04:39:01.625Z,510.02
2022-07-27T04:41:30.310Z,999.90
2022-07-27T04:43:58.946Z,999.90
2022-07-27T04:46:29.714Z,999.90
2022-07-27T04:48:57.469Z,999.90
2022-07-27T04:51:26.818Z,999.90
2022-07-27T04:53:58.213Z,999.90
2022-07-27T04:56:27.031Z,781.08
2022-07-27T04:58:55.525Z,999.90
2022-07-27T05:01:23.308Z,318.50
2022-07-27T05:03:52.999Z,526.28
2022-07-27T05:06:20.276Z,441.60
2022-07-27T05:08:47.470Z,702.13
2022-07-27T05:11:14.965Z,873.92
2022-07-27T05:13:42.205Z,857.13
2022-07-27T05:16:13.403Z,999.90
2022-07-27T05:18:40.860Z,948.83
2022-07-27T05:21:14.058Z,999.90
2022-07-27T05:23:41.802Z,999.90
2022-07-27T05:26:11.466Z,904.85
2022-07-27T05:28:41.276Z,847.63
2022-07-27T05:31:12.100Z,999.90
2022-07-27T05:33:49.292Z,741.45
2022-07-27T05:36:20.596Z,610.50
2022-07-27T05:38:54.796Z,716.22
2022-07-27T05:41:24.909Z,999.90
2022-07-27T05:43:54.321Z,810.60
2022-07-27T05:46:32.463Z,654.53
2022-07-27T05:49:02.381Z,592.65
2022-07-27T05:51:31.453Z,654.88
2022-07-27T05:53:59.558Z,727.67
2022-07-27T05:56:28.612Z,621.80
2022-07-27T05:58:58.247Z,581.78
2022-07-27T06:01:29.366Z,738.00
2022-07-27T06:04:01.611Z,469.85
2022-07-27T06:06:48.833Z,458.23
2022-07-27T06:09:17.444Z,434.30
2022-07-27T06:11:44.785Z,466.75
2022-07-27T06:14:14.260Z,494.55
2022-07-27T06:16:41.498Z,591.58
2022-07-27T06:19:08.910Z,553.00
2022-07-27T06:21:36.394Z,538.63
2022-07-27T06:24:03.805Z,579.63
2022-07-27T06:26:35.308Z,519.75
2022-07-27T06:29:02.513Z,690.85
2022-07-27T06:31:39.759Z,750.38
2022-07-27T06:34:11.703Z,609.63
2022-07-27T06:36:42.240Z,748.00
2022-07-27T06:39:09.785Z,721.53
2022-07-27T06:41:37.398Z,914.20
2022-07-27T06:44:05.064Z,883.17
2022-07-27T06:46:32.304Z,922.17
2022-07-27T06:48:59.596Z,825.45
2022-07-27T06:51:26.827Z,931.75
2022-07-27T06:53:54.406Z,935.33
2022-07-27T06:56:24.235Z,904.60
2022-07-27T06:58:51.472Z,916.70
2022-07-27T07:01:18.845Z,944.33
2022-07-27T07:03:46.190Z,947.42
2022-07-27T07:06:13.699Z,934.40
2022-07-27T07:08:40.943Z,915.05
2022-07-27T07:11:11.765Z,874.85
2022-07-27T07:13:43.252Z,854.90
2022-07-27T07:16:12.742Z,857.33
2022-07-27T07:18:40.091Z,850.85
2022-07-27T07:21:07.344Z,745.08
2022-07-27T07:23:34.566Z,744.65
2022-07-27T07:26:01.730Z,793.85
2022-07-27T07:28:28.933Z,834.38
2022-07-27T07:30:56.260Z,777.90
2022-07-27T07:33:23.605Z,716.40
2022-07-27T07:36:13.947Z,814.88
2022-07-27T07:38:38.080Z,850.00
2022-07-27T07:41:06.053Z,885.45
2022-07-27T07:43:35.478Z,854.38
2022-07-27T07:46:03.087Z,790.35
2022-07-27T07:48:30.602Z,789.28
2022-07-27T07:50:58.758Z,791.50
2022-07-27T07:53:26.098Z,798.65
2022-07-27T07:55:56.039Z,855.78
2022-07-27T07:58:23.271Z,999.90
2022-07-27T08:00:50.496Z,999.90
2022-07-27T08:03:18.298Z,999.90
2022-07-27T08:05:45.793Z,999.90
2022-07-27T08:08:13.070Z,999.90
2022-07-27T08:10:40.280Z,999.90
2022-07-27T08:13:08.599Z,999.90
2022-07-27T08:15:36.615Z,999.90
2022-07-27T08:18:05.893Z,999.90
2022-07-27T08:20:34.945Z,999.90
2022-07-27T08:23:03.263Z,999.90
2022-07-27T08:25:31.137Z,999.90
2022-07-27T08:27:58.685Z,999.90
2022-07-27T08:30:26.386Z,999.90
2022-07-27T08:32:58.130Z,999.90
2022-07-27T08:35:26.711Z,999.90
2022-07-27T08:37:55.101Z,999.90
2022-07-27T08:43:12.094Z,999.90
2022-07-27T08:45:41.651Z,999.90
2022-07-27T08:48:13.448Z,999.90
2022-07-27T08:50:42.760Z,999.90
2022-07-27T08:53:12.872Z,999.90
2022-07-27T08:55:43.337Z,999.90
2022-07-27T08:58:12.190Z,999.90
2022-07-27T09:00:41.475Z,999.90
2022-07-27T09:03:18.440Z,999.90
2022-07-27T09:05:55.878Z,570.70
2022-07-27T09:08:25.991Z,580.78
2022-07-27T09:10:55.507Z,567.50
2022-07-27T09:13:26.603Z,605.25
2022-07-27T09:18:46.750Z,597.83
2022-07-27T09:21:23.702Z,360.50
2022-07-27T09:23:53.284Z,324.33
2022-07-27T09:26:34.483Z,305.65
2022-07-27T09:29:11.033Z,164.77
2022-07-27T09:31:42.630Z,190.18
2022-07-27T09:34:10.858Z,185.63
2022-07-27T09:36:55.261Z,232.77
2022-07-27T09:39:24.123Z,513.22
2022-07-27T09:41:53.542Z,620.70
2022-07-27T09:44:34.741Z,731.35
2022-07-27T09:47:26.541Z,637.33
2022-07-27T09:50:15.064Z,723.60
2022-07-27T09:52:42.527Z,759.17
2022-07-27T09:55:10.314Z,659.38
2022-07-27T09:57:54.215Z,793.95
2022-07-27T10:00:24.954Z,797.55
2022-07-27T10:02:53.859Z,686.53
2022-07-27T10:05:22.799Z,535.72
2022-07-27T10:07:52.650Z,265.02
2022-07-27T10:10:21.270Z,230.68
2022-07-27T10:12:54.173Z,135.85
2022-07-27T10:15:23.361Z,171.15
2022-07-27T10:18:01.842Z,181.93
2022-07-27T10:20:31.727Z,378.73
2022-07-27T10:22:59.437Z,278.35
2022-07-27T10:25:33.101Z,359.38
2022-07-27T10:28:17.768Z,409.80
2022-07-27T10:30:49.350Z,548.20
2022-07-27T10:33:44.558Z,842.40
2022-07-27T10:36:32.001Z,733.65
2022-07-27T10:39:05.423Z,652.17
2022-07-27T10:41:35.644Z,767.67
2022-07-27T10:44:18.035Z,493.25
2022-07-27T10:46:50.668Z,622.75
2022-07-27T10:49:19.732Z,702.83
2022-07-27T10:51:47.487Z,685.53
2022-07-27T10:54:32.445Z,528.60
2022-07-27T10:57:01.579Z,612.92
2022-07-27T11:00:07.481Z,831.28
2022-07-27T11:02:41.184Z,682.00
2022-07-27T11:05:24.886Z,605.90
2022-07-27T11:10:49.052Z,507.02
2022-07-27T11:13:21.607Z,755.45
2022-07-27T11:16:09.666Z,630.70
2022-07-27T11:18:53.082Z,661.42
2022-07-27T11:21:36.120Z,780.75
2022-07-27T11:24:12.025Z,618.10
2022-07-27T11:26:45.763Z,558.05
2022-07-27T11:29:15.012Z,574.40
2022-07-27T11:31:59.716Z,277.42
2022-07-27T11:34:35.548Z,265.00
2022-07-27T11:37:11.722Z,140.55
2022-07-27T11:42:38.100Z,294.88
2022-07-27T11:45:06.959Z,566.50
2022-07-27T11:47:34.285Z,651.97
2022-07-27T11:50:11.290Z,467.88
2022-07-27T11:52:38.620Z,249.30
2022-07-27T11:55:07.782Z,148.82
2022-07-27T11:57:35.995Z,129.93
2022-07-27T12:00:05.185Z,191.15
2022-07-27T12:02:51.541Z,323.98
2022-07-27T12:05:19.129Z,260.95
2022-07-27T12:07:46.565Z,300.77
2022-07-27T12:10:13.768Z,328.02
2022-07-27T12:12:41.150Z,349.65
2022-07-27T12:15:44.623Z,384.90
2022-07-27T12:18:04.432Z,453.45
2022-07-27T12:20:33.377Z,773.85
2022-07-27T12:23:08.028Z,722.33
2022-07-27T12:25:36.190Z,701.17
2022-07-27T12:28:06.713Z,708.83
2022-07-27T12:30:50.256Z,729.83
2022-07-27T12:33:27.974Z,709.05
2022-07-27T12:35:56.641Z,688.35
2022-07-27T12:38:24.086Z,727.33
2022-07-27T12:41:00.820Z,579.95
2022-07-27T12:43:28.456Z,320.42
2022-07-27T12:45:56.229Z,321.00
2022-07-27T12:48:26.034Z,307.27
2022-07-27T12:51:00.310Z,250.48
2022-07-27T12:53:28.098Z,162.23
2022-07-27T12:55:57.606Z,187.32
2022-07-27T12:58:25.297Z,334.83
2022-07-27T13:00:52.883Z,333.65
2022-07-27T13:03:20.356Z,328.23
2022-07-27T13:05:47.609Z,394.80
2022-07-27T13:08:16.756Z,515.28
2022-07-27T13:10:44.843Z,544.60
2022-07-27T13:13:12.057Z,532.38
2022-07-27T13:15:39.330Z,590.15
2022-07-27T13:18:08.315Z,603.40
2022-07-27T13:20:36.662Z,719.53
2022-07-27T13:23:07.711Z,823.97
2022-07-27T13:25:39.598Z,802.58
2022-07-27T13:28:10.346Z,777.33
2022-07-27T13:30:37.730Z,759.13
2022-07-27T13:33:04.929Z,730.75
2022-07-27T13:43:12.568Z,999.90
2022-07-27T13:45:42.914Z,999.90
2022-07-27T13:48:11.998Z,999.90
2022-07-27T13:50:40.189Z,999.90
2022-07-27T13:53:07.441Z,999.90
2022-07-27T13:55:35.270Z,999.90
2022-07-27T13:58:02.469Z,999.90
2022-07-27T14:00:29.684Z,999.90
2022-07-27T14:02:56.968Z,999.90
2022-07-27T14:05:24.673Z,999.90
2022-07-27T14:07:54.150Z,999.90
2022-07-27T14:10:39.910Z,999.90
2022-07-27T14:13:10.758Z,999.90
2022-07-27T14:15:50.645Z,999.90
2022-07-27T14:18:23.638Z,999.90
2022-07-27T14:20:50.879Z,999.90
2022-07-27T14:23:18.152Z,999.90
2022-07-27T14:25:45.394Z,999.90
2022-07-27T14:28:12.573Z,999.90
2022-07-27T14:30:39.897Z,999.90
2022-07-27T14:33:07.149Z,999.90
2022-07-27T14:35:39.885Z,999.90
2022-07-27T14:38:09.542Z,999.90
2022-07-27T14:40:37.667Z,999.90
2022-07-27T14:43:05.267Z,999.90
2022-07-27T14:45:44.951Z,999.90
2022-07-27T14:48:22.786Z,999.90
2022-07-27T14:50:55.734Z,999.90
2022-07-27T14:53:23.222Z,999.90
2022-07-27T14:55:50.471Z,999.90
2022-07-27T14:58:17.770Z,999.90
2022-07-27T15:00:45.225Z,999.90
2022-07-27T15:03:14.700Z,999.90
2022-07-27T15:05:50.349Z,999.90
2022-07-27T15:08:19.881Z,999.90
2022-07-27T15:10:47.822Z,999.90
2022-07-27T15:13:15.100Z,999.90
2022-07-27T15:15:42.670Z,999.90
2022-07-27T15:18:10.338Z,999.90
2022-07-27T15:20:37.643Z,999.90
2022-07-27T15:23:06.357Z,999.90
2022-07-27T15:25:33.821Z,999.90
2022-07-27T15:28:01.158Z,999.90
2022-07-27T15:30:28.561Z,999.90
2022-07-27T15:32:55.824Z,999.90
2022-07-27T15:35:23.039Z,999.90
2022-07-27T15:37:54.142Z,999.90
2022-07-27T15:40:39.118Z,999.90
2022-07-27T15:43:10.571Z,999.90
2022-07-27T15:45:40.269Z,999.90
2022-07-27T15:48:10.175Z,999.90
2022-07-27T15:50:39.334Z,999.90
2022-07-27T15:53:07.039Z,999.90
2022-07-27T15:55:37.249Z,999.90
2022-07-27T15:58:06.025Z,999.90
2022-07-27T16:00:39.187Z,999.90
2022-07-27T16:03:11.693Z,999.90
2022-07-27T16:05:40.968Z,999.90
2022-07-27T16:08:09.727Z,999.90
2022-07-27T16:10:38.712Z,999.90
2022-07-27T16:13:07.091Z,999.90
2022-07-27T16:15:54.071Z,999.90
2022-07-27T16:18:21.966Z,999.90
2022-07-27T16:20:49.461Z,999.90
2022-07-27T16:23:18.087Z,999.90
2022-07-27T16:26:07.503Z,999.90
2022-07-27T16:28:40.633Z,999.90
2022-07-27T16:31:10.349Z,999.90
2022-07-27T16:33:38.014Z,999.90
2022-07-27T16:36:06.057Z,999.90
2022-07-27T16:38:49.887Z,999.90
2022-07-27T16:41:22.376Z,999.90
2022-07-27T16:43:50.127Z,999.90
2022-07-27T16:46:18.000Z,999.90
2022-07-27T16:48:45.418Z,999.90
2022-07-27T16:51:14.678Z,999.90
2022-07-27T16:53:45.602Z,999.90
2022-07-27T16:56:14.450Z,999.90
2022-07-27T16:58:41.733Z,999.90
2022-07-27T17:01:09.468Z,999.90
2022-07-27T17:03:37.524Z,999.90
2022-07-27T17:06:06.506Z,999.90
2022-07-27T17:08:35.778Z,999.90
2022-07-27T17:11:06.135Z,999.90
2022-07-27T17:13:34.647Z,999.90
2022-07-27T17:16:04.523Z,999.90
2022-07-27T17:18:38.959Z,999.90
2022-07-27T17:21:09.411Z,999.90
2022-07-27T17:23:38.186Z,999.90
2022-07-27T17:26:07.235Z,999.90
2022-07-27T17:28:36.729Z,999.90
2022-07-27T17:31:05.488Z,999.90
2022-07-27T17:33:32.992Z,999.90
2022-07-27T17:36:00.265Z,999.90
2022-07-27T17:38:27.920Z,999.90
2022-07-27T17:40:55.274Z,999.90
2022-07-27T17:43:22.561Z,999.90
2022-07-27T17:45:49.822Z,999.90
2022-07-27T17:48:17.080Z,999.90
2022-07-27T17:50:44.484Z,999.90
2022-07-27T17:53:11.738Z,999.90
2022-07-27T17:55:38.979Z,999.90
2022-07-27T17:58:06.184Z,999.90
2022-07-27T18:00:33.411Z,999.90
2022-07-27T18:03:00.694Z,999.90
2022-07-27T18:05:27.897Z,999.90
2022-07-27T18:07:55.213Z,999.90
2022-07-27T18:10:22.431Z,999.90
2022-07-27T18:12:49.694Z,999.90
2022-07-27T18:15:35.443Z,999.90
2022-07-27T18:18:02.653Z,999.90
2022-07-27T18:20:29.932Z,999.90
2022-07-27T18:22:57.426Z,999.90
2022-07-27T18:25:26.871Z,999.90
2022-07-27T18:27:54.071Z,999.90
2022-07-27T18:30:21.237Z,999.90
2022-07-27T18:32:48.487Z,999.90
2022-07-27T18:35:15.878Z,999.90
2022-07-27T18:37:44.209Z,999.90
2022-07-27T18:40:12.154Z,999.90
2022-07-27T18:42:39.523Z,999.90
2022-07-27T18:45:07.702Z,999.90
2022-07-27T18:47:35.626Z,999.90
2022-07-27T18:50:03.835Z,999.90
2022-07-27T18:52:31.390Z,999.90
2022-07-27T18:54:58.659Z,999.90
2022-07-27T18:57:26.304Z,999.90
2022-07-27T18:59:53.597Z,999.90
2022-07-27T19:02:22.492Z,999.90
2022-07-27T19:04:53.942Z,999.90
2022-07-27T19:07:22.428Z,999.90
2022-07-27T19:09:51.161Z,999.90
2022-07-27T19:12:18.327Z,999.90
2022-07-27T19:14:45.621Z,999.90
2022-07-27T19:17:19.515Z,999.90
2022-07-27T19:19:47.367Z,999.90
2022-07-27T19:22:15.245Z,999.90
2022-07-27T19:24:42.454Z,999.90
2022-07-27T19:27:09.769Z,999.90
2022-07-27T19:29:36.988Z,999.90
2022-07-27T19:32:05.154Z,999.90
2022-07-27T19:34:32.346Z,999.90
2022-07-27T19:36:59.542Z,456.25
2022-07-27T19:39:26.734Z,583.83
2022-07-27T19:41:54.446Z,647.47
2022-07-27T19:44:22.587Z,635.35
2022-07-27T19:46:49.922Z,673.55
2022-07-27T19:49:18.449Z,223.93
2022-07-27T19:51:46.054Z,153.43
2022-07-27T19:54:13.664Z,142.65
2022-07-27T19:56:40.951Z,582.65
2022-07-27T19:59:08.229Z,546.55
2022-07-27T20:01:35.864Z,999.90
2022-07-27T20:04:09.135Z,999.90
2022-07-27T20:06:36.510Z,999.90
2022-07-27T20:09:05.184Z,459.95
2022-07-27T20:11:33.691Z,381.05
2022-07-27T20:14:02.484Z,792.58
2022-07-27T20:16:32.039Z,546.97
2022-07-27T20:19:00.142Z,509.35
2022-07-27T20:21:27.393Z,999.90
2022-07-27T20:23:57.328Z,694.22
2022-07-27T20:26:25.023Z,625.33
2022-07-27T20:28:53.046Z,999.90
2022-07-27T20:31:20.843Z,787.10
2022-07-27T20:33:48.113Z,810.13
2022-07-27T20:36:15.285Z,999.90
2022-07-27T20:38:42.447Z,999.90
2022-07-27T20:41:09.751Z,999.90
2022-07-27T20:43:37.326Z,999.90
2022-07-27T20:46:04.796Z,689.30
2022-07-27T20:48:33.262Z,766.13
2022-07-27T20:51:00.729Z,789.67
2022-07-27T20:53:28.585Z,999.90
2022-07-27T20:55:55.748Z,999.90
2022-07-27T20:58:23.187Z,757.92
2022-07-27T21:00:50.630Z,690.43
2022-07-27T21:03:18.075Z,744.63
2022-07-27T21:05:45.567Z,766.53
2022-07-27T21:08:12.922Z,586.87
2022-07-27T21:10:40.303Z,999.90
2022-07-27T21:13:07.653Z,999.90
2022-07-27T21:15:35.052Z,999.90
2022-07-27T21:18:02.860Z,999.90
2022-07-27T21:20:30.154Z,999.90
2022-07-27T21:23:15.738Z,999.90
2022-07-27T21:25:43.406Z,999.90
2022-07-27T21:28:18.324Z,999.90
2022-07-27T21:30:46.082Z,999.90
2022-07-27T21:33:13.349Z,999.90
2022-07-27T21:35:40.687Z,999.90
2022-07-27T21:38:07.965Z,999.90
2022-07-27T21:40:35.212Z,999.90
2022-07-27T21:43:02.430Z,999.90
2022-07-27T21:45:29.717Z,999.90
2022-07-27T21:47:57.349Z,999.90
2022-07-27T21:50:24.814Z,999.90
2022-07-27T21:52:53.035Z,999.90
2022-07-27T21:55:23.113Z,999.90
2022-07-27T21:57:51.425Z,999.90
2022-07-27T22:00:25.465Z,999.90
2022-07-27T22:02:52.811Z,999.90
2022-07-27T22:05:22.537Z,999.90
2022-07-27T22:07:52.887Z,999.90
2022-07-27T22:10:20.238Z,999.90
2022-07-27T22:12:47.470Z,999.90
2022-07-27T22:15:14.894Z,999.90
2022-07-27T22:17:50.374Z,999.90
2022-07-27T22:20:19.037Z,999.90
2022-07-27T22:22:47.122Z,999.90
2022-07-27T22:25:14.674Z,999.90
2022-07-27T22:27:41.953Z,999.90
2022-07-27T22:30:09.540Z,999.90
2022-07-27T22:32:36.793Z,999.90
2022-07-27T22:35:04.426Z,999.90
2022-07-27T22:37:31.608Z,999.90
2022-07-27T22:39:59.033Z,999.90
2022-07-27T22:42:26.463Z,999.90
2022-07-27T22:44:53.782Z,999.90
2022-07-27T22:47:20.928Z,999.90
2022-07-27T22:49:48.137Z,999.90
2022-07-27T22:52:15.345Z,999.90
2022-07-27T22:54:42.596Z,999.90
2022-07-27T22:57:10.010Z,999.90
2022-07-27T22:59:37.425Z,999.90
2022-07-27T23:02:05.531Z,999.90
2022-07-27T23:04:32.847Z,999.90
2022-07-27T23:07:00.037Z,999.90
2022-07-27T23:09:27.288Z,999.90
2022-07-27T23:11:54.765Z,999.90
2022-07-27T23:14:25.663Z,999.90
2022-07-27T23:16:52.918Z,999.90
2022-07-27T23:19:20.879Z,999.90
2022-07-27T23:21:49.112Z,999.90
2022-07-27T23:24:19.124Z,999.90
2022-07-27T23:26:57.008Z,999.90
2022-07-27T23:29:24.309Z,999.90
2022-07-27T23:31:51.757Z,999.90
2022-07-27T23:34:19.071Z,999.90
2022-07-27T23:36:46.285Z,999.90
2022-07-27T23:39:13.523Z,999.90
2022-07-27T23:41:40.745Z,999.90
2022-07-27T23:44:07.917Z,999.90
2022-07-27T23:46:35.203Z,999.90
2022-07-27T23:49:02.465Z,999.90
2022-07-27T23:51:29.762Z,999.90
2022-07-27T23:53:56.937Z,999.90
2022-07-27T23:56:24.191Z,999.90
2022-07-27T23:58:51.353Z,999.90
